sensor_id;sensor_type;location;lat;lon;timestamp;P1;P2;P0
80965;PMS5003;70426;37.772;-122.432;2024-02-16T00:00:50;2;2;
80965;PMS5003;70426;37.772;-122.432;2024-02-16T00:03:14;2;2;
80965;PMS5003;70426;37.772;-122.432;2024-02-16T00:05:39;3;1;
80965;PMS5003;70426;37.772;-122.432;2024-02-16T00:08:05;1;1;
80965;PMS5003;70426;37.772;-122.432;2024-02-16T00:10:30;2;2;
80965;PMS5003;70426;37.772;-122.432;2024-02-16T00:12:55;3;2;
80965;PMS5003;70426;37.772;-122.432;2024-02-16T00:15:20;1;1;
80965;PMS5003;70426;37.772;-122.432;2024-02-16T00:17:45;3;2;
80965;PMS5003;70426;37.772;-122.432;2024-02-16T00:20:10;1;1;
80965;PMS5003;70426;37.772;-122.432;2024-02-16T00:22:42;3;2;
80965;PMS5003;70426;37.772;-122.432;2024-02-16T00:25:00;2;2;
80965;PMS5003;70426;37.772;-122.432;2024-02-16T00:27:25;2;0;
80965;PMS5003;70426;37.772;-122.432;2024-02-16T00:29:50;3;3;
80965;PMS5003;70426;37.772;-122.432;2024-02-16T00:32:15;2;2;
80965;PMS5003;70426;37.772;-122.432;2024-02-16T00:34:40;3;3;
80965;PMS5003;70426;37.772;-122.432;2024-02-16T00:37:05;1;1;
80965;PMS5003;70426;37.772;-122.432;2024-02-16T00:39:30;1;1;
80965;PMS5003;70426;37.772;-122.432;2024-02-16T00:41:55;2;0;
80965;PMS5003;70426;37.772;-122.432;2024-02-16T00:44:21;1;1;
80965;PMS5003;70426;37.772;-122.432;2024-02-16T00:46:46;4;3;
80965;PMS5003;70426;37.772;-122.432;2024-02-16T00:49:11;2;2;
80965;PMS5003;70426;37.772;-122.432;2024-02-16T00:51:36;3;2;
80965;PMS5003;70426;37.772;-122.432;2024-02-16T00:54:01;3;3;
80965;PMS5003;70426;37.772;-122.432;2024-02-16T00:56:26;2;2;
80965;PMS5003;70426;37.772;-122.432;2024-02-16T00:58:51;2;1;
80965;PMS5003;70426;37.772;-122.432;2024-02-16T01:01:16;4;2;
80965;PMS5003;70426;37.772;-122.432;2024-02-16T01:03:41;2;2;
80965;PMS5003;70426;37.772;-122.432;2024-02-16T01:06:07;2;2;
80965;PMS5003;70426;37.772;-122.432;2024-02-16T01:08:31;4;2;
80965;PMS5003;70426;37.772;-122.432;2024-02-16T01:10:56;2;2;
80965;PMS5003;70426;37.772;-122.432;2024-02-16T01:13:21;3;1;
80965;PMS5003;70426;37.772;-122.432;2024-02-16T01:15:46;2;1;
80965;PMS5003;70426;37.772;-122.432;2024-02-16T01:18:12;3;3;
80965;PMS5003;70426;37.772;-122.432;2024-02-16T01:20:37;5;2;
80965;PMS5003;70426;37.772;-122.432;2024-02-16T01:23:02;0;0;
80965;PMS5003;70426;37.772;-122.432;2024-02-16T01:25:27;3;3;
80965;PMS5003;70426;37.772;-122.432;2024-02-16T01:27:53;2;2;
80965;PMS5003;70426;37.772;-122.432;2024-02-16T01:30:17;2;2;
80965;PMS5003;70426;37.772;-122.432;2024-02-16T01:32:42;2;2;
80965;PMS5003;70426;37.772;-122.432;2024-02-16T01:35:08;4;2;
80965;PMS5003;70426;37.772;-122.432;2024-02-16T01:37:32;2;2;
80965;PMS5003;70426;37.772;-122.432;2024-02-16T01:39:57;2;2;
80965;PMS5003;70426;37.772;-122.432;2024-02-16T01:42:22;2;2;
80965;PMS5003;70426;37.772;-122.432;2024-02-16T01:44:47;2;2;
80965;PMS5003;70426;37.772;-122.432;2024-02-16T01:47:12;3;2;
80965;PMS5003;70426;37.772;-122.432;2024-02-16T01:49:38;4;3;
80965;PMS5003;70426;37.772;-122.432;2024-02-16T01:52:03;2;2;
80965;PMS5003;70426;37.772;-122.432;2024-02-16T01:54:27;5;2;
80965;PMS5003;70426;37.772;-122.432;2024-02-16T01:56:53;6;4;
80965;PMS5003;70426;37.772;-122.432;2024-02-16T01:59:18;1;1;
80965;PMS5003;70426;37.772;-122.432;2024-02-16T02:01:43;3;3;
80965;PMS5003;70426;37.772;-122.432;2024-02-16T02:04:08;2;2;
80965;PMS5003;70426;37.772;-122.432;2024-02-16T02:06:33;6;3;
80965;PMS5003;70426;37.772;-122.432;2024-02-16T02:08:58;3;2;
80965;PMS5003;70426;37.772;-122.432;2024-02-16T02:11:24;1;0;
80965;PMS5003;70426;37.772;-122.432;2024-02-16T02:13:48;3;2;
80965;PMS5003;70426;37.772;-122.432;2024-02-16T02:16:13;3;3;
80965;PMS5003;70426;37.772;-122.432;2024-02-16T02:18:38;1;1;
80965;PMS5003;70426;37.772;-122.432;2024-02-16T02:21:03;1;1;
80965;PMS5003;70426;37.772;-122.432;2024-02-16T02:23:28;3;1;
80965;PMS5003;70426;37.772;-122.432;2024-02-16T02:25:53;3;2;
80965;PMS5003;70426;37.772;-122.432;2024-02-16T02:28:18;3;3;
80965;PMS5003;70426;37.772;-122.432;2024-02-16T02:30:44;3;2;
80965;PMS5003;70426;37.772;-122.432;2024-02-16T02:33:14;13;9;
80965;PMS5003;70426;37.772;-122.432;2024-02-16T02:35:34;11;8;
80965;PMS5003;70426;37.772;-122.432;2024-02-16T02:38:00;10;7;
80965;PMS5003;70426;37.772;-122.432;2024-02-16T02:40:25;6;6;
80965;PMS5003;70426;37.772;-122.432;2024-02-16T02:42:50;11;8;
80965;PMS5003;70426;37.772;-122.432;2024-02-16T02:45:15;9;6;
80965;PMS5003;70426;37.772;-122.432;2024-02-16T02:47:40;13;8;
80965;PMS5003;70426;37.772;-122.432;2024-02-16T02:50:05;10;7;
80965;PMS5003;70426;37.772;-122.432;2024-02-16T02:52:30;8;6;
80965;PMS5003;70426;37.772;-122.432;2024-02-16T02:54:55;11;9;
80965;PMS5003;70426;37.772;-122.432;2024-02-16T02:57:20;11;9;
80965;PMS5003;70426;37.772;-122.432;2024-02-16T02:59:45;11;9;
80965;PMS5003;70426;37.772;-122.432;2024-02-16T03:02:10;15;10;
80965;PMS5003;70426;37.772;-122.432;2024-02-16T03:04:36;10;10;
80965;PMS5003;70426;37.772;-122.432;2024-02-16T03:07:01;10;8;
80965;PMS5003;70426;37.772;-122.432;2024-02-16T03:09:26;12;9;
80965;PMS5003;70426;37.772;-122.432;2024-02-16T03:11:51;13;11;
80965;PMS5003;70426;37.772;-122.432;2024-02-16T03:14:16;11;9;
80965;PMS5003;70426;37.772;-122.432;2024-02-16T03:16:42;10;6;
80965;PMS5003;70426;37.772;-122.432;2024-02-16T03:19:06;10;8;
80965;PMS5003;70426;37.772;-122.432;2024-02-16T03:21:32;11;7;
80965;PMS5003;70426;37.772;-122.432;2024-02-16T03:23:57;6;6;
80965;PMS5003;70426;37.772;-122.432;2024-02-16T03:26:22;6;5;
80965;PMS5003;70426;37.772;-122.432;2024-02-16T03:28:47;11;7;
80965;PMS5003;70426;37.772;-122.432;2024-02-16T03:31:18;5;5;
80965;PMS5003;70426;37.772;-122.432;2024-02-16T03:33:38;8;6;
80965;PMS5003;70426;37.772;-122.432;2024-02-16T03:36:03;4;4;
80965;PMS5003;70426;37.772;-122.432;2024-02-16T03:38:28;9;8;
80965;PMS5003;70426;37.772;-122.432;2024-02-16T03:40:53;8;6;
80965;PMS5003;70426;37.772;-122.432;2024-02-16T03:43:18;8;6;
80965;PMS5003;70426;37.772;-122.432;2024-02-16T03:45:43;5;4;
80965;PMS5003;70426;37.772;-122.432;2024-02-16T03:48:08;7;7;
80965;PMS5003;70426;37.772;-122.432;2024-02-16T03:50:34;7;4;
80965;PMS5003;70426;37.772;-122.432;2024-02-16T03:52:59;6;4;
80965;PMS5003;70426;37.772;-122.432;2024-02-16T03:55:24;11;7;
80965;PMS5003;70426;37.772;-122.432;2024-02-16T03:57:49;6;5;
80965;PMS5003;70426;37.772;-122.432;2024-02-16T04:00:15;7;6;
80965;PMS5003;70426;37.772;-122.432;2024-02-16T04:02:39;5;4;
80965;PMS5003;70426;37.772;-122.432;2024-02-16T04:05:04;5;4;
80965;PMS5003;70426;37.772;-122.432;2024-02-16T04:07:30;13;9;
80965;PMS5003;70426;37.772;-122.432;2024-02-16T04:09:55;6;6;
80965;PMS5003;70426;37.772;-122.432;2024-02-16T04:12:20;6;6;
80965;PMS5003;70426;37.772;-122.432;2024-02-16T04:14:45;7;5;
80965;PMS5003;70426;37.772;-122.432;2024-02-16T04:17:10;8;6;
80965;PMS5003;70426;37.772;-122.432;2024-02-16T04:19:36;6;6;
80965;PMS5003;70426;37.772;-122.432;2024-02-16T04:22:02;5;5;
80965;PMS5003;70426;37.772;-122.432;2024-02-16T04:24:25;6;5;
80965;PMS5003;70426;37.772;-122.432;2024-02-16T04:26:50;5;3;
80965;PMS5003;70426;37.772;-122.432;2024-02-16T04:29:15;6;6;
80965;PMS5003;70426;37.772;-122.432;2024-02-16T04:31:41;7;3;
80965;PMS5003;70426;37.772;-122.432;2024-02-16T04:34:06;4;2;
80965;PMS5003;70426;37.772;-122.432;2024-02-16T04:36:31;7;5;
80965;PMS5003;70426;37.772;-122.432;2024-02-16T04:38:56;4;4;
80965;PMS5003;70426;37.772;-122.432;2024-02-16T04:41:21;6;4;
80965;PMS5003;70426;37.772;-122.432;2024-02-16T04:43:46;6;6;
80965;PMS5003;70426;37.772;-122.432;2024-02-16T04:46:14;6;4;
80965;PMS5003;70426;37.772;-122.432;2024-02-16T04:48:36;5;4;
80965;PMS5003;70426;37.772;-122.432;2024-02-16T04:51:01;5;5;
80965;PMS5003;70426;37.772;-122.432;2024-02-16T04:53:26;6;6;
80965;PMS5003;70426;37.772;-122.432;2024-02-16T04:55:51;6;5;
80965;PMS5003;70426;37.772;-122.432;2024-02-16T04:58:16;4;3;
80965;PMS5003;70426;37.772;-122.432;2024-02-16T05:00:41;9;6;
80965;PMS5003;70426;37.772;-122.432;2024-02-16T05:03:06;7;6;
80965;PMS5003;70426;37.772;-122.432;2024-02-16T05:05:32;4;4;
80965;PMS5003;70426;37.772;-122.432;2024-02-16T05:07:56;5;4;
80965;PMS5003;70426;37.772;-122.432;2024-02-16T05:10:22;4;4;
80965;PMS5003;70426;37.772;-122.432;2024-02-16T05:12:47;6;5;
80965;PMS5003;70426;37.772;-122.432;2024-02-16T05:15:12;7;5;
80965;PMS5003;70426;37.772;-122.432;2024-02-16T05:17:37;6;3;
80965;PMS5003;70426;37.772;-122.432;2024-02-16T05:20:02;9;6;
80965;PMS5003;70426;37.772;-122.432;2024-02-16T05:22:27;4;4;
80965;PMS5003;70426;37.772;-122.432;2024-02-16T05:24:52;7;5;
80965;PMS5003;70426;37.772;-122.432;2024-02-16T05:27:17;8;7;
80965;PMS5003;70426;37.772;-122.432;2024-02-16T05:29:42;7;6;
80965;PMS5003;70426;37.772;-122.432;2024-02-16T05:32:07;7;6;
80965;PMS5003;70426;37.772;-122.432;2024-02-16T05:34:32;6;5;
80965;PMS5003;70426;37.772;-122.432;2024-02-16T05:36:57;8;7;
80965;PMS5003;70426;37.772;-122.432;2024-02-16T05:39:22;5;5;
80965;PMS5003;70426;37.772;-122.432;2024-02-16T05:41:52;7;6;
80965;PMS5003;70426;37.772;-122.432;2024-02-16T05:44:14;5;5;
80965;PMS5003;70426;37.772;-122.432;2024-02-16T05:46:38;6;5;
80965;PMS5003;70426;37.772;-122.432;2024-02-16T05:49:04;7;7;
80965;PMS5003;70426;37.772;-122.432;2024-02-16T05:51:28;5;5;
80965;PMS5003;70426;37.772;-122.432;2024-02-16T05:53:53;11;8;
80965;PMS5003;70426;37.772;-122.432;2024-02-16T05:56:18;8;7;
80965;PMS5003;70426;37.772;-122.432;2024-02-16T05:58:43;7;6;
80965;PMS5003;70426;37.772;-122.432;2024-02-16T06:01:09;6;6;
80965;PMS5003;70426;37.772;-122.432;2024-02-16T06:03:34;6;6;
80965;PMS5003;70426;37.772;-122.432;2024-02-16T06:05:59;7;6;
80965;PMS5003;70426;37.772;-122.432;2024-02-16T06:08:24;7;5;
80965;PMS5003;70426;37.772;-122.432;2024-02-16T06:10:50;6;4;
80965;PMS5003;70426;37.772;-122.432;2024-02-16T06:13:14;9;7;
80965;PMS5003;70426;37.772;-122.432;2024-02-16T06:15:40;8;6;
80965;PMS5003;70426;37.772;-122.432;2024-02-16T06:18:05;8;6;
80965;PMS5003;70426;37.772;-122.432;2024-02-16T06:20:30;7;6;
80965;PMS5003;70426;37.772;-122.432;2024-02-16T06:22:55;9;8;
80965;PMS5003;70426;37.772;-122.432;2024-02-16T06:25:20;6;5;
80965;PMS5003;70426;37.772;-122.432;2024-02-16T06:27:45;5;4;
80965;PMS5003;70426;37.772;-122.432;2024-02-16T06:30:11;7;6;
80965;PMS5003;70426;37.772;-122.432;2024-02-16T06:32:35;7;6;
80965;PMS5003;70426;37.772;-122.432;2024-02-16T06:35:00;7;7;
80965;PMS5003;70426;37.772;-122.432;2024-02-16T06:37:25;7;7;
80965;PMS5003;70426;37.772;-122.432;2024-02-16T06:39:50;7;6;
80965;PMS5003;70426;37.772;-122.432;2024-02-16T06:42:15;6;6;
80965;PMS5003;70426;37.772;-122.432;2024-02-16T06:44:40;6;5;
80965;PMS5003;70426;37.772;-122.432;2024-02-16T06:47:06;7;7;
80965;PMS5003;70426;37.772;-122.432;2024-02-16T06:49:31;6;5;
80965;PMS5003;70426;37.772;-122.432;2024-02-16T06:51:56;8;7;
80965;PMS5003;70426;37.772;-122.432;2024-02-16T06:54:21;8;6;
80965;PMS5003;70426;37.772;-122.432;2024-02-16T06:56:46;7;5;
80965;PMS5003;70426;37.772;-122.432;2024-02-16T06:59:11;10;7;
80965;PMS5003;70426;37.772;-122.432;2024-02-16T07:01:36;11;8;
80965;PMS5003;70426;37.772;-122.432;2024-02-16T07:04:01;10;6;
80965;PMS5003;70426;37.772;-122.432;2024-02-16T07:06:26;9;6;
80965;PMS5003;70426;37.772;-122.432;2024-02-16T07:08:51;7;6;
80965;PMS5003;70426;37.772;-122.432;2024-02-16T07:11:16;10;8;
80965;PMS5003;70426;37.772;-122.432;2024-02-16T07:13:41;6;6;
80965;PMS5003;70426;37.772;-122.432;2024-02-16T07:16:07;8;6;
80965;PMS5003;70426;37.772;-122.432;2024-02-16T07:18:32;8;8;
80965;PMS5003;70426;37.772;-122.432;2024-02-16T07:20:57;6;6;
80965;PMS5003;70426;37.772;-122.432;2024-02-16T07:23:22;7;5;
80965;PMS5003;70426;37.772;-122.432;2024-02-16T07:25:47;10;7;
80965;PMS5003;70426;37.772;-122.432;2024-02-16T07:28:12;7;5;
80965;PMS5003;70426;37.772;-122.432;2024-02-16T07:30:37;5;5;
80965;PMS5003;70426;37.772;-122.432;2024-02-16T07:33:03;8;7;
80965;PMS5003;70426;37.772;-122.432;2024-02-16T07:35:28;7;7;
80965;PMS5003;70426;37.772;-122.432;2024-02-16T07:37:53;8;6;
80965;PMS5003;70426;37.772;-122.432;2024-02-16T07:40:18;6;5;
80965;PMS5003;70426;37.772;-122.432;2024-02-16T07:42:43;5;5;
80965;PMS5003;70426;37.772;-122.432;2024-02-16T07:45:08;6;6;
80965;PMS5003;70426;37.772;-122.432;2024-02-16T07:47:33;6;5;
80965;PMS5003;70426;37.772;-122.432;2024-02-16T07:49:58;8;6;
80965;PMS5003;70426;37.772;-122.432;2024-02-16T07:52:23;5;5;
80965;PMS5003;70426;37.772;-122.432;2024-02-16T07:54:48;4;4;
80965;PMS5003;70426;37.772;-122.432;2024-02-16T07:57:13;3;3;
80965;PMS5003;70426;37.772;-122.432;2024-02-16T07:59:38;6;5;
80965;PMS5003;70426;37.772;-122.432;2024-02-16T08:02:04;6;5;
80965;PMS5003;70426;37.772;-122.432;2024-02-16T08:04:29;5;5;
80965;PMS5003;70426;37.772;-122.432;2024-02-16T08:06:54;8;5;
80965;PMS5003;70426;37.772;-122.432;2024-02-16T08:09:19;3;3;
80965;PMS5003;70426;37.772;-122.432;2024-02-16T08:11:44;5;5;
80965;PMS5003;70426;37.772;-122.432;2024-02-16T08:14:09;6;6;
80965;PMS5003;70426;37.772;-122.432;2024-02-16T08:16:34;7;5;
80965;PMS5003;70426;37.772;-122.432;2024-02-16T08:18:59;5;4;
80965;PMS5003;70426;37.772;-122.432;2024-02-16T08:21:24;3;3;
80965;PMS5003;70426;37.772;-122.432;2024-02-16T08:23:49;6;5;
80965;PMS5003;70426;37.772;-122.432;2024-02-16T08:26:14;3;3;
80965;PMS5003;70426;37.772;-122.432;2024-02-16T08:28:39;5;5;
80965;PMS5003;70426;37.772;-122.432;2024-02-16T08:31:05;4;4;
80965;PMS5003;70426;37.772;-122.432;2024-02-16T08:33:30;4;4;
80965;PMS5003;70426;37.772;-122.432;2024-02-16T08:35:54;5;5;
80965;PMS5003;70426;37.772;-122.432;2024-02-16T08:38:20;6;5;
80965;PMS5003;70426;37.772;-122.432;2024-02-16T08:40:45;4;4;
80965;PMS5003;70426;37.772;-122.432;2024-02-16T08:43:10;4;4;
80965;PMS5003;70426;37.772;-122.432;2024-02-16T08:45:35;6;6;
80965;PMS5003;70426;37.772;-122.432;2024-02-16T08:48:00;6;5;
80965;PMS5003;70426;37.772;-122.432;2024-02-16T08:50:25;8;6;
80965;PMS5003;70426;37.772;-122.432;2024-02-16T08:52:50;5;5;
80965;PMS5003;70426;37.772;-122.432;2024-02-16T08:55:15;8;6;
80965;PMS5003;70426;37.772;-122.432;2024-02-16T08:57:40;5;5;
80965;PMS5003;70426;37.772;-122.432;2024-02-16T09:00:06;6;4;
80965;PMS5003;70426;37.772;-122.432;2024-02-16T09:02:30;5;4;
80965;PMS5003;70426;37.772;-122.432;2024-02-16T09:04:55;7;6;
80965;PMS5003;70426;37.772;-122.432;2024-02-16T09:07:20;5;5;
80965;PMS5003;70426;37.772;-122.432;2024-02-16T09:09:46;7;6;
80965;PMS5003;70426;37.772;-122.432;2024-02-16T09:12:11;8;5;
80965;PMS5003;70426;37.772;-122.432;2024-02-16T09:14:36;5;5;
80965;PMS5003;70426;37.772;-122.432;2024-02-16T09:17:01;6;4;
80965;PMS5003;70426;37.772;-122.432;2024-02-16T09:19:26;6;5;
80965;PMS5003;70426;37.772;-122.432;2024-02-16T09:21:51;7;6;
80965;PMS5003;70426;37.772;-122.432;2024-02-16T09:24:17;5;5;
80965;PMS5003;70426;37.772;-122.432;2024-02-16T09:26:42;7;5;
80965;PMS5003;70426;37.772;-122.432;2024-02-16T09:29:07;6;5;
80965;PMS5003;70426;37.772;-122.432;2024-02-16T09:31:32;5;4;
80965;PMS5003;70426;37.772;-122.432;2024-02-16T09:33:57;4;4;
80965;PMS5003;70426;37.772;-122.432;2024-02-16T09:36:22;4;4;
80965;PMS5003;70426;37.772;-122.432;2024-02-16T09:38:47;6;5;
80965;PMS5003;70426;37.772;-122.432;2024-02-16T09:41:13;6;6;
80965;PMS5003;70426;37.772;-122.432;2024-02-16T09:43:37;7;4;
80965;PMS5003;70426;37.772;-122.432;2024-02-16T09:46:02;5;4;
80965;PMS5003;70426;37.772;-122.432;2024-02-16T09:48:27;6;5;
80965;PMS5003;70426;37.772;-122.432;2024-02-16T09:50:53;6;5;
80965;PMS5003;70426;37.772;-122.432;2024-02-16T09:53:17;4;4;
80965;PMS5003;70426;37.772;-122.432;2024-02-16T09:55:43;3;3;
80965;PMS5003;70426;37.772;-122.432;2024-02-16T09:58:08;4;3;
80965;PMS5003;70426;37.772;-122.432;2024-02-16T10:00:33;4;3;
80965;PMS5003;70426;37.772;-122.432;2024-02-16T10:02:58;6;5;
80965;PMS5003;70426;37.772;-122.432;2024-02-16T10:05:23;4;4;
80965;PMS5003;70426;37.772;-122.432;2024-02-16T10:07:48;10;8;
80965;PMS5003;70426;37.772;-122.432;2024-02-16T10:10:20;5;4;
80965;PMS5003;70426;37.772;-122.432;2024-02-16T10:12:39;5;5;
80965;PMS5003;70426;37.772;-122.432;2024-02-16T10:15:04;6;4;
80965;PMS5003;70426;37.772;-122.432;2024-02-16T10:17:29;7;7;
80965;PMS5003;70426;37.772;-122.432;2024-02-16T10:19:55;7;4;
80965;PMS5003;70426;37.772;-122.432;2024-02-16T10:22:19;6;4;
80965;PMS5003;70426;37.772;-122.432;2024-02-16T10:24:44;6;4;
80965;PMS5003;70426;37.772;-122.432;2024-02-16T10:27:14;3;3;
80965;PMS5003;70426;37.772;-122.432;2024-02-16T10:29:34;5;5;
80965;PMS5003;70426;37.772;-122.432;2024-02-16T10:31:59;5;5;
80965;PMS5003;70426;37.772;-122.432;2024-02-16T10:34:24;3;3;
80965;PMS5003;70426;37.772;-122.432;2024-02-16T10:36:49;7;4;
80965;PMS5003;70426;37.772;-122.432;2024-02-16T10:39:14;8;5;
80965;PMS5003;70426;37.772;-122.432;2024-02-16T10:41:40;5;5;
80965;PMS5003;70426;37.772;-122.432;2024-02-16T10:44:07;5;4;
80965;PMS5003;70426;37.772;-122.432;2024-02-16T10:46:30;4;4;
80965;PMS5003;70426;37.772;-122.432;2024-02-16T10:48:56;6;5;
80965;PMS5003;70426;37.772;-122.432;2024-02-16T10:53:46;5;4;
80965;PMS5003;70426;37.772;-122.432;2024-02-16T10:56:10;5;4;
80965;PMS5003;70426;37.772;-122.432;2024-02-16T10:58:36;5;5;
80965;PMS5003;70426;37.772;-122.432;2024-02-16T11:01:07;6;5;
80965;PMS5003;70426;37.772;-122.432;2024-02-16T11:03:26;4;3;
80965;PMS5003;70426;37.772;-122.432;2024-02-16T11:05:51;6;5;
80965;PMS5003;70426;37.772;-122.432;2024-02-16T11:08:18;3;3;
80965;PMS5003;70426;37.772;-122.432;2024-02-16T11:10:41;5;4;
80965;PMS5003;70426;37.772;-122.432;2024-02-16T11:13:05;6;5;
80965;PMS5003;70426;37.772;-122.432;2024-02-16T11:15:32;6;6;
80965;PMS5003;70426;37.772;-122.432;2024-02-16T11:17:56;6;6;
80965;PMS5003;70426;37.772;-122.432;2024-02-16T11:20:24;10;7;
80965;PMS5003;70426;37.772;-122.432;2024-02-16T11:22:46;4;4;
80965;PMS5003;70426;37.772;-122.432;2024-02-16T11:25:12;7;4;
80965;PMS5003;70426;37.772;-122.432;2024-02-16T11:27:36;7;6;
80965;PMS5003;70426;37.772;-122.432;2024-02-16T11:30:01;6;4;
80965;PMS5003;70426;37.772;-122.432;2024-02-16T11:32:28;4;4;
80965;PMS5003;70426;37.772;-122.432;2024-02-16T11:34:52;5;5;
80965;PMS5003;70426;37.772;-122.432;2024-02-16T11:37:16;5;5;
80965;PMS5003;70426;37.772;-122.432;2024-02-16T11:39:41;4;3;
80965;PMS5003;70426;37.772;-122.432;2024-02-16T11:42:09;5;5;
80965;PMS5003;70426;37.772;-122.432;2024-02-16T11:44:33;4;3;
80965;PMS5003;70426;37.772;-122.432;2024-02-16T11:46:58;4;4;
80965;PMS5003;70426;37.772;-122.432;2024-02-16T11:49:22;6;4;
80965;PMS5003;70426;37.772;-122.432;2024-02-16T11:51:47;6;5;
80965;PMS5003;70426;37.772;-122.432;2024-02-16T11:54:12;6;5;
80965;PMS5003;70426;37.772;-122.432;2024-02-16T11:56:41;4;4;
80965;PMS5003;70426;37.772;-122.432;2024-02-16T11:59:02;7;6;
80965;PMS5003;70426;37.772;-122.432;2024-02-16T12:01:27;7;7;
80965;PMS5003;70426;37.772;-122.432;2024-02-16T12:03:56;8;6;
80965;PMS5003;70426;37.772;-122.432;2024-02-16T12:06:21;5;5;
80965;PMS5003;70426;37.772;-122.432;2024-02-16T12:08:44;4;4;
80965;PMS5003;70426;37.772;-122.432;2024-02-16T12:11:07;4;4;
80965;PMS5003;70426;37.772;-122.432;2024-02-16T12:13:33;5;4;
80965;PMS5003;70426;37.772;-122.432;2024-02-16T12:16:01;7;5;
80965;PMS5003;70426;37.772;-122.432;2024-02-16T12:18:24;5;5;
80965;PMS5003;70426;37.772;-122.432;2024-02-16T12:20:58;5;5;
80965;PMS5003;70426;37.772;-122.432;2024-02-16T12:23:16;4;4;
80965;PMS5003;70426;37.772;-122.432;2024-02-16T12:25:38;4;4;
80965;PMS5003;70426;37.772;-122.432;2024-02-16T12:28:07;5;4;
80965;PMS5003;70426;37.772;-122.432;2024-02-16T12:30:28;6;6;
80965;PMS5003;70426;37.772;-122.432;2024-02-16T12:32:53;6;6;
80965;PMS5003;70426;37.772;-122.432;2024-02-16T12:35:18;7;6;
80965;PMS5003;70426;37.772;-122.432;2024-02-16T12:37:45;7;7;
80965;PMS5003;70426;37.772;-122.432;2024-02-16T12:40:09;7;7;
80965;PMS5003;70426;37.772;-122.432;2024-02-16T12:42:34;6;6;
80965;PMS5003;70426;37.772;-122.432;2024-02-16T12:44:59;8;6;
80965;PMS5003;70426;37.772;-122.432;2024-02-16T12:47:24;4;4;
80965;PMS5003;70426;37.772;-122.432;2024-02-16T12:49:49;7;7;
80965;PMS5003;70426;37.772;-122.432;2024-02-16T12:52:19;5;5;
80965;PMS5003;70426;37.772;-122.432;2024-02-16T12:54:39;5;5;
80965;PMS5003;70426;37.772;-122.432;2024-02-16T12:57:11;5;5;
80965;PMS5003;70426;37.772;-122.432;2024-02-16T12:59:31;6;5;
80965;PMS5003;70426;37.772;-122.432;2024-02-16T13:01:55;7;7;
80965;PMS5003;70426;37.772;-122.432;2024-02-16T13:04:19;6;6;
80965;PMS5003;70426;37.772;-122.432;2024-02-16T13:06:45;6;6;
80965;PMS5003;70426;37.772;-122.432;2024-02-16T13:09:09;6;6;
80965;PMS5003;70426;37.772;-122.432;2024-02-16T13:11:34;7;5;
80965;PMS5003;70426;37.772;-122.432;2024-02-16T13:13:59;9;9;
80965;PMS5003;70426;37.772;-122.432;2024-02-16T13:16:25;11;6;
80965;PMS5003;70426;37.772;-122.432;2024-02-16T13:18:53;8;7;
80965;PMS5003;70426;37.772;-122.432;2024-02-16T13:21:15;6;6;
80965;PMS5003;70426;37.772;-122.432;2024-02-16T13:23:40;9;8;
80965;PMS5003;70426;37.772;-122.432;2024-02-16T13:26:05;6;6;
80965;PMS5003;70426;37.772;-122.432;2024-02-16T13:28:30;8;8;
80965;PMS5003;70426;37.772;-122.432;2024-02-16T13:30:56;11;8;
80965;PMS5003;70426;37.772;-122.432;2024-02-16T13:33:21;8;7;
80965;PMS5003;70426;37.772;-122.432;2024-02-16T13:35:46;9;8;
80965;PMS5003;70426;37.772;-122.432;2024-02-16T13:38:11;7;6;
80965;PMS5003;70426;37.772;-122.432;2024-02-16T13:40:38;7;7;
80965;PMS5003;70426;37.772;-122.432;2024-02-16T13:43:01;6;5;
80965;PMS5003;70426;37.772;-122.432;2024-02-16T13:45:26;5;5;
80965;PMS5003;70426;37.772;-122.432;2024-02-16T13:47:51;5;5;
80965;PMS5003;70426;37.772;-122.432;2024-02-16T13:50:16;6;5;
80965;PMS5003;70426;37.772;-122.432;2024-02-16T13:52:41;7;5;
80965;PMS5003;70426;37.772;-122.432;2024-02-16T13:55:07;5;5;
80965;PMS5003;70426;37.772;-122.432;2024-02-16T13:57:31;5;5;
80965;PMS5003;70426;37.772;-122.432;2024-02-16T13:59:56;7;5;
80965;PMS5003;70426;37.772;-122.432;2024-02-16T14:02:22;7;6;
80965;PMS5003;70426;37.772;-122.432;2024-02-16T14:04:47;5;4;
80965;PMS5003;70426;37.772;-122.432;2024-02-16T14:07:12;7;6;
80965;PMS5003;70426;37.772;-122.432;2024-02-16T14:09:37;7;6;
80965;PMS5003;70426;37.772;-122.432;2024-02-16T14:12:02;5;5;
80965;PMS5003;70426;37.772;-122.432;2024-02-16T14:14:27;8;7;
80965;PMS5003;70426;37.772;-122.432;2024-02-16T14:16:52;7;5;
80965;PMS5003;70426;37.772;-122.432;2024-02-16T14:19:17;5;5;
80965;PMS5003;70426;37.772;-122.432;2024-02-16T14:21:43;7;5;
80965;PMS5003;70426;37.772;-122.432;2024-02-16T14:24:07;7;6;
80965;PMS5003;70426;37.772;-122.432;2024-02-16T14:26:32;7;6;
80965;PMS5003;70426;37.772;-122.432;2024-02-16T14:28:58;7;7;
80965;PMS5003;70426;37.772;-122.432;2024-02-16T14:31:23;7;7;
80965;PMS5003;70426;37.772;-122.432;2024-02-16T14:33:48;7;6;
80965;PMS5003;70426;37.772;-122.432;2024-02-16T14:36:13;10;8;
80965;PMS5003;70426;37.772;-122.432;2024-02-16T14:38:38;7;7;
80965;PMS5003;70426;37.772;-122.432;2024-02-16T14:41:03;7;7;
80965;PMS5003;70426;37.772;-122.432;2024-02-16T14:43:28;8;8;
80965;PMS5003;70426;37.772;-122.432;2024-02-16T14:45:54;6;6;
80965;PMS5003;70426;37.772;-122.432;2024-02-16T14:48:18;7;7;
80965;PMS5003;70426;37.772;-122.432;2024-02-16T14:50:43;9;7;
80965;PMS5003;70426;37.772;-122.432;2024-02-16T14:53:08;6;6;
80965;PMS5003;70426;37.772;-122.432;2024-02-16T14:55:33;10;7;
80965;PMS5003;70426;37.772;-122.432;2024-02-16T14:57:59;9;8;
80965;PMS5003;70426;37.772;-122.432;2024-02-16T15:00:24;7;7;
80965;PMS5003;70426;37.772;-122.432;2024-02-16T15:02:49;5;5;
80965;PMS5003;70426;37.772;-122.432;2024-02-16T15:05:14;6;6;
80965;PMS5003;70426;37.772;-122.432;2024-02-16T15:07:39;8;7;
80965;PMS5003;70426;37.772;-122.432;2024-02-16T15:10:05;8;6;
80965;PMS5003;70426;37.772;-122.432;2024-02-16T15:12:29;8;7;
80965;PMS5003;70426;37.772;-122.432;2024-02-16T15:14:54;6;6;
80965;PMS5003;70426;37.772;-122.432;2024-02-16T15:17:19;9;7;
80965;PMS5003;70426;37.772;-122.432;2024-02-16T15:19:44;6;5;
80965;PMS5003;70426;37.772;-122.432;2024-02-16T15:22:09;7;6;
80965;PMS5003;70426;37.772;-122.432;2024-02-16T15:24:34;6;5;
80965;PMS5003;70426;37.772;-122.432;2024-02-16T15:27:00;8;7;
80965;PMS5003;70426;37.772;-122.432;2024-02-16T15:29:25;8;6;
80965;PMS5003;70426;37.772;-122.432;2024-02-16T15:31:50;9;7;
80965;PMS5003;70426;37.772;-122.432;2024-02-16T15:34:15;8;8;
80965;PMS5003;70426;37.772;-122.432;2024-02-16T15:36:40;6;6;
80965;PMS5003;70426;37.772;-122.432;2024-02-16T15:39:05;8;7;
80965;PMS5003;70426;37.772;-122.432;2024-02-16T15:41:30;7;6;
80965;PMS5003;70426;37.772;-122.432;2024-02-16T15:43:55;8;6;
80965;PMS5003;70426;37.772;-122.432;2024-02-16T15:46:20;7;7;